createdAt,value
2022-12-17T00:01:48.843Z,97499.94
2022-12-17T00:04:33.967Z,97469.63
2022-12-17T00:07:19.171Z,97526.03
2022-12-17T00:10:04.451Z,97510.25
2022-12-17T00:12:49.900Z,97497.91
2022-12-17T00:15:34.953Z,97504.78
2022-12-17T00:18:26.270Z,97489.94
2022-12-17T00:21:15.405Z,97447.13
2022-12-17T00:24:01.184Z,97513.16
2022-12-17T00:26:46.587Z,97559.91
2022-12-17T00:29:31.787Z,97514.72
2022-12-17T00:32:17.191Z,97485.00
2022-12-17T00:35:02.179Z,97440.03
2022-12-17T00:37:47.505Z,97494.53
2022-12-17T00:40:32.693Z,97492.75
2022-12-17T00:43:27.484Z,97537.03
2022-12-17T00:46:12.719Z,97523.19
2022-12-17T00:48:57.961Z,97542.94
2022-12-17T00:51:43.199Z,97484.94
2022-12-17T00:54:28.395Z,97543.75
2022-12-17T00:57:13.633Z,97458.63
2022-12-17T00:59:58.866Z,97476.69
2022-12-17T01:02:44.264Z,97543.59
2022-12-17T01:05:29.614Z,97519.94
2022-12-17T01:08:14.967Z,97545.81
2022-12-17T01:11:00.073Z,97532.78
2022-12-17T01:13:45.099Z,97589.13
2022-12-17T01:16:31.903Z,97621.31
2022-12-17T01:19:17.636Z,97563.72
2022-12-17T01:22:03.871Z,97516.00
2022-12-17T01:24:48.793Z,97582.78
2022-12-17T01:27:33.915Z,97556.66
2022-12-17T01:30:19.140Z,97560.78
2022-12-17T01:33:04.127Z,97583.06
2022-12-17T01:35:49.320Z,97667.38
2022-12-17T01:38:37.034Z,97647.59
2022-12-17T01:41:23.125Z,97562.44
2022-12-17T01:44:08.403Z,97607.47
2022-12-17T01:46:59.428Z,97603.97
2022-12-17T01:49:44.632Z,97576.13
2022-12-17T01:52:32.899Z,97602.91
2022-12-17T01:55:18.371Z,97650.56
2022-12-17T01:58:03.523Z,97603.66
2022-12-17T02:00:48.819Z,97653.78
2022-12-17T02:03:35.443Z,97649.28
2022-12-17T02:06:30.981Z,97645.38
2022-12-17T02:09:19.538Z,97590.56
2022-12-17T02:12:29.085Z,97616.41
2022-12-17T02:15:24.933Z,97646.00
2022-12-17T02:18:15.246Z,97651.94
2022-12-17T02:21:07.748Z,97579.06
2022-12-17T02:23:56.539Z,97695.59
2022-12-17T02:26:54.051Z,97694.72
2022-12-17T02:29:39.854Z,97626.81
2022-12-17T02:32:25.007Z,97560.69
2022-12-17T02:35:10.441Z,97552.16
2022-12-17T02:37:55.625Z,97641.50
2022-12-17T02:40:41.386Z,97520.88
2022-12-17T02:43:26.983Z,97594.91
2022-12-17T02:46:12.285Z,97719.44
2022-12-17T02:48:57.570Z,97629.09
2022-12-17T02:51:50.706Z,97635.72
2022-12-17T02:54:35.899Z,97605.38
2022-12-17T02:57:21.273Z,97662.28
2022-12-17T03:00:06.417Z,97654.59
2022-12-17T03:02:51.799Z,97664.22
2022-12-17T03:05:44.935Z,97712.91
2022-12-17T03:08:30.804Z,97693.53
2022-12-17T03:11:15.685Z,97742.41
2022-12-17T03:14:00.807Z,97659.47
2022-12-17T03:16:46.173Z,97598.69
2022-12-17T03:19:31.022Z,97708.97
2022-12-17T03:22:15.958Z,97711.63
2022-12-17T03:25:01.143Z,97698.25
2022-12-17T03:27:46.463Z,97687.00
2022-12-17T03:30:35.752Z,97705.09
2022-12-17T03:33:21.301Z,97743.31
2022-12-17T03:36:06.586Z,97747.34
2022-12-17T03:38:56.174Z,97671.91
2022-12-17T03:41:41.351Z,97679.00
2022-12-17T03:44:26.440Z,97718.59
2022-12-17T03:47:11.550Z,97763.22
2022-12-17T03:49:56.818Z,97764.66
2022-12-17T03:52:42.107Z,97706.59
2022-12-17T03:55:27.273Z,97712.56
2022-12-17T03:58:12.460Z,97707.47
2022-12-17T04:00:57.768Z,97577.91
2022-12-17T04:03:42.993Z,97645.53
2022-12-17T04:06:28.349Z,97747.28
2022-12-17T04:09:13.329Z,97680.84
2022-12-17T04:11:58.918Z,97771.25
2022-12-17T04:14:43.947Z,97778.16
2022-12-17T04:17:29.172Z,97724.16
2022-12-17T04:20:14.333Z,97740.16
2022-12-17T04:22:59.658Z,97755.16
2022-12-17T04:25:44.817Z,97741.13
2022-12-17T04:28:32.826Z,97793.50
2022-12-17T04:31:18.075Z,97714.16
2022-12-17T04:34:03.283Z,97808.03
2022-12-17T04:36:48.538Z,97843.63
2022-12-17T04:39:33.744Z,97795.72
2022-12-17T04:42:18.739Z,97754.50
2022-12-17T04:45:03.947Z,97786.78
2022-12-17T04:47:49.232Z,97790.00
2022-12-17T04:50:34.527Z,97724.78
2022-12-17T04:53:23.310Z,97749.41
2022-12-17T04:56:08.545Z,97815.19
2022-12-17T04:58:53.718Z,97795.34
2022-12-17T05:01:38.975Z,97759.47
2022-12-17T05:04:24.344Z,97868.22
2022-12-17T05:07:09.527Z,97803.63
2022-12-17T05:09:54.745Z,97874.19
2022-12-17T05:12:40.009Z,97803.56
2022-12-17T05:15:25.676Z,97732.19
2022-12-17T05:18:10.930Z,97815.56
2022-12-17T05:20:56.090Z,97801.53
2022-12-17T05:23:41.385Z,97756.00
2022-12-17T05:26:32.643Z,97830.56
2022-12-17T05:29:17.964Z,97897.69
2022-12-17T05:32:03.018Z,97694.03
2022-12-17T05:34:48.463Z,97864.34
2022-12-17T05:37:33.635Z,97741.53
2022-12-17T05:40:18.991Z,97800.53
2022-12-17T05:43:21.068Z,97845.00
2022-12-17T05:46:06.416Z,97815.81
2022-12-17T05:48:51.635Z,97899.13
2022-12-17T05:51:38.841Z,97885.63
2022-12-17T05:54:24.554Z,97874.28
2022-12-17T05:57:09.656Z,97837.75
2022-12-17T05:59:54.915Z,97889.00
2022-12-17T06:02:40.290Z,97816.41
2022-12-17T06:05:26.208Z,97864.22
2022-12-17T06:08:11.409Z,97852.94
2022-12-17T06:10:56.839Z,97835.34
2022-12-17T06:13:42.018Z,97949.31
2022-12-17T06:16:27.285Z,97851.78
2022-12-17T06:19:12.395Z,97903.22
2022-12-17T06:21:57.589Z,97960.59
2022-12-17T06:24:45.896Z,97907.25
2022-12-17T06:27:31.515Z,97893.47
2022-12-17T06:30:18.815Z,97926.50
2022-12-17T06:33:24.177Z,97949.72
2022-12-17T06:36:11.035Z,97972.28
2022-12-17T06:38:56.093Z,97913.03
2022-12-17T06:41:41.180Z,97891.25
2022-12-17T06:44:26.384Z,97907.75
2022-12-17T06:47:11.700Z,97885.75
2022-12-17T06:50:01.083Z,97956.25
2022-12-17T06:52:46.496Z,97949.06
2022-12-17T06:55:31.888Z,97969.19
2022-12-17T06:58:17.967Z,97915.84
2022-12-17T07:01:03.682Z,97978.34
2022-12-17T07:03:48.789Z,97978.53
2022-12-17T07:06:34.015Z,97958.59
2022-12-17T07:09:19.184Z,97902.56
2022-12-17T07:12:04.504Z,97988.69
2022-12-17T07:14:49.789Z,97947.59
2022-12-17T07:17:34.905Z,97949.91
2022-12-17T07:20:19.950Z,98038.34
2022-12-17T07:23:05.315Z,97945.28
2022-12-17T07:25:50.429Z,97794.84
2022-12-17T07:28:37.312Z,97816.16
2022-12-17T07:31:22.462Z,97990.22
2022-12-17T07:34:15.329Z,97963.66
2022-12-17T07:37:00.566Z,98025.28
2022-12-17T07:39:45.943Z,97947.50
2022-12-17T07:42:31.131Z,98024.03
2022-12-17T07:45:16.191Z,97759.16
2022-12-17T07:48:01.376Z,97930.59
2022-12-17T07:50:46.620Z,98023.97
2022-12-17T07:53:31.708Z,97844.47
2022-12-17T07:56:16.818Z,98052.84
2022-12-17T07:59:01.867Z,97992.50
2022-12-17T08:01:47.005Z,97984.59
2022-12-17T08:04:32.337Z,97985.97
2022-12-17T08:07:17.511Z,97972.44
2022-12-17T08:10:02.825Z,98068.63
2022-12-17T08:12:47.853Z,97994.09
2022-12-17T08:15:33.169Z,97908.00
2022-12-17T08:18:26.116Z,98130.44
2022-12-17T08:21:11.681Z,98071.19
2022-12-17T08:23:56.786Z,98008.38
2022-12-17T08:26:47.281Z,98085.09
2022-12-17T08:29:33.071Z,98077.16
2022-12-17T08:32:18.036Z,98123.28
2022-12-17T08:35:03.284Z,98023.66
2022-12-17T08:37:49.312Z,98045.63
2022-12-17T08:40:34.484Z,98084.75
2022-12-17T08:43:19.825Z,98140.72
2022-12-17T08:46:08.488Z,98088.09
2022-12-17T08:48:53.694Z,98152.94
2022-12-17T08:51:38.768Z,98041.84
2022-12-17T08:54:23.804Z,98129.34
2022-12-17T08:57:09.059Z,98113.75
2022-12-17T08:59:58.657Z,98110.88
2022-12-17T09:02:43.906Z,98124.84
2022-12-17T09:05:29.366Z,97931.44
2022-12-17T09:08:21.567Z,98067.75
2022-12-17T09:11:06.758Z,98118.16
2022-12-17T09:13:52.204Z,98088.38
2022-12-17T09:16:37.887Z,98103.81
2022-12-17T09:19:23.079Z,98102.22
2022-12-17T09:22:08.333Z,98143.28
2022-12-17T09:24:53.498Z,98122.09
2022-12-17T09:27:38.891Z,98119.19
2022-12-17T09:30:24.548Z,98166.66
2022-12-17T09:33:09.694Z,98098.50
2022-12-17T09:35:58.452Z,97920.28
2022-12-17T09:38:43.480Z,98047.94
2022-12-17T09:41:45.426Z,98053.78
2022-12-17T09:44:50.573Z,98181.53
2022-12-17T09:48:07.036Z,98007.16
2022-12-17T09:50:52.338Z,98151.81
2022-12-17T09:53:41.567Z,98211.22
2022-12-17T09:56:28.241Z,98100.56
2022-12-17T09:59:17.934Z,98141.59
2022-12-17T10:02:03.500Z,98079.78
2022-12-17T10:04:53.434Z,98219.06
2022-12-17T10:07:43.269Z,98179.69
2022-12-17T10:10:37.158Z,98220.84
2022-12-17T10:13:30.815Z,97950.28
2022-12-17T10:16:16.011Z,98077.66
2022-12-17T10:19:01.270Z,98096.03
2022-12-17T10:21:47.496Z,98213.41
2022-12-17T10:24:32.928Z,98109.72
2022-12-17T10:27:18.266Z,97970.63
2022-12-17T10:30:04.064Z,97938.19
2022-12-17T10:32:49.261Z,97964.38
2022-12-17T10:35:53.197Z,98110.97
2022-12-17T10:38:46.242Z,97989.41
2022-12-17T10:41:44.042Z,98222.88
2022-12-17T10:44:41.877Z,98221.19
2022-12-17T10:47:34.618Z,97961.75
2022-12-17T10:50:20.881Z,97972.97
2022-12-17T10:53:06.589Z,98035.28
2022-12-17T10:55:52.471Z,98001.63
2022-12-17T10:58:40.440Z,98229.69
2022-12-17T11:01:28.037Z,98115.50
2022-12-17T11:04:16.835Z,98143.28
2022-12-17T11:07:04.739Z,97991.00
2022-12-17T11:10:09.453Z,98175.47
2022-12-17T11:13:03.282Z,98151.00
2022-12-17T11:16:11.077Z,98251.06
2022-12-17T11:19:17.721Z,98046.31
2022-12-17T11:22:14.587Z,98244.81
2022-12-17T11:25:05.464Z,97994.84
2022-12-17T11:27:53.177Z,98139.56
2022-12-17T11:30:38.322Z,98064.72
2022-12-17T11:33:37.771Z,98153.91
2022-12-17T11:36:39.186Z,98221.28
2022-12-17T11:39:39.932Z,98257.13
2022-12-17T11:42:37.539Z,98013.03
2022-12-17T11:45:28.851Z,98259.78
2022-12-17T11:48:28.673Z,98078.09
2022-12-17T11:51:17.472Z,98097.22
2022-12-17T11:54:26.698Z,98258.09
2022-12-17T11:57:21.125Z,98009.91
2022-12-17T12:00:20.808Z,97854.09
2022-12-17T12:03:12.688Z,98257.97
2022-12-17T12:06:01.068Z,98255.44
2022-12-17T12:08:51.688Z,98096.00
2022-12-17T12:11:51.703Z,98256.25
2022-12-17T12:14:49.203Z,98245.00
2022-12-17T12:17:37.523Z,98240.66
2022-12-17T12:20:35.189Z,98244.81
2022-12-17T12:23:26.844Z,98251.53
2022-12-17T12:26:26.717Z,98246.34
2022-12-17T12:29:24.315Z,98257.34
2022-12-17T12:32:40.179Z,98099.13
2022-12-17T12:35:26.867Z,98082.25
2022-12-17T12:38:12.197Z,98251.31
2022-12-17T12:41:01.333Z,98165.56
2022-12-17T12:44:07.099Z,98262.31
2022-12-17T12:47:02.551Z,98180.44
2022-12-17T12:50:11.087Z,98004.66
2022-12-17T12:52:56.344Z,98245.47
2022-12-17T12:55:41.718Z,98090.69
2022-12-17T12:58:52.704Z,98256.63
2022-12-17T13:01:38.685Z,98058.50
2022-12-17T13:04:48.140Z,98181.22
2022-12-17T13:07:26.508Z,98023.50
2022-12-17T13:09:54.992Z,98104.00
2022-12-17T13:12:28.362Z,98287.25
2022-12-17T13:14:59.414Z,98144.63
2022-12-17T13:17:32.539Z,98178.03
2022-12-17T13:20:22.675Z,98204.47
2022-12-17T13:22:53.868Z,98213.16
2022-12-17T13:25:23.639Z,98186.41
2022-12-17T13:27:50.315Z,97998.25
2022-12-17T13:30:36.615Z,98188.06
2022-12-17T13:33:22.144Z,98279.66
2022-12-17T13:35:52.901Z,98284.75
2022-12-17T13:38:44.738Z,98280.53
2022-12-17T13:41:16.303Z,98041.75
2022-12-17T13:43:49.565Z,98031.19
2022-12-17T13:46:46.743Z,98077.19
2022-12-17T13:49:28.368Z,98205.69
2022-12-17T13:52:11.593Z,98167.06
2022-12-17T13:54:38.569Z,98299.84
2022-12-17T13:57:23.000Z,98172.28
2022-12-17T13:59:53.731Z,98067.91
2022-12-17T14:02:34.051Z,98305.22
2022-12-17T14:05:07.468Z,98208.00
2022-12-17T14:07:35.536Z,98282.13
2022-12-17T14:10:02.442Z,98168.25
2022-12-17T14:12:30.099Z,98236.78
2022-12-17T14:15:00.161Z,98320.13
2022-12-17T14:17:42.500Z,97886.53
2022-12-17T14:20:13.375Z,98323.53
2022-12-17T14:22:44.967Z,98248.63
2022-12-17T14:25:22.740Z,98326.09
2022-12-17T14:28:02.492Z,98291.13
2022-12-17T14:31:02.581Z,98222.59
2022-12-17T14:33:36.889Z,98245.31
2022-12-17T14:36:17.529Z,98081.72
2022-12-17T14:38:58.454Z,98129.34
2022-12-17T14:41:43.686Z,98350.97
2022-12-17T14:44:21.564Z,98201.91
2022-12-17T14:46:48.392Z,98078.38
2022-12-17T14:49:18.264Z,98121.34
2022-12-17T14:51:45.128Z,97987.91
2022-12-17T14:54:19.555Z,98289.25
2022-12-17T14:56:47.513Z,97888.25
2022-12-17T14:59:24.088Z,98200.78
2022-12-17T15:01:55.947Z,97897.78
2022-12-17T15:04:23.236Z,98119.41
2022-12-17T15:06:49.913Z,98371.59
2022-12-17T15:09:16.717Z,98091.19
2022-12-17T15:11:43.251Z,98159.88
2022-12-17T15:14:10.466Z,98180.69
2022-12-17T15:16:37.475Z,98088.66
2022-12-17T15:19:04.502Z,98139.38
2022-12-17T15:21:31.341Z,98176.25
2022-12-17T15:23:58.163Z,98205.97
2022-12-17T15:26:24.882Z,98231.28
2022-12-17T15:28:52.124Z,98271.47
2022-12-17T15:31:24.492Z,98072.91
2022-12-17T15:33:52.889Z,98319.09
2022-12-17T15:36:19.576Z,98325.47
2022-12-17T15:38:46.472Z,98236.44
2022-12-17T15:41:31.692Z,98116.72
2022-12-17T15:43:58.382Z,98017.38
2022-12-17T15:46:25.299Z,98028.81
2022-12-17T15:48:51.885Z,98169.38
2022-12-17T15:51:21.016Z,98226.78
2022-12-17T15:53:48.308Z,98203.91
2022-12-17T15:56:22.849Z,98303.03
2022-12-17T15:58:49.490Z,98090.56
2022-12-17T16:01:16.121Z,98166.16
2022-12-17T16:03:42.923Z,98218.16
2022-12-17T16:06:09.612Z,98244.81
2022-12-17T16:08:38.876Z,98034.78
2022-12-17T16:11:09.391Z,98010.41
2022-12-17T16:13:37.015Z,98204.75
2022-12-17T16:16:04.542Z,98147.41
2022-12-17T16:18:31.507Z,98293.78
2022-12-17T16:21:08.136Z,98232.84
2022-12-17T16:23:34.865Z,98379.47
2022-12-17T16:26:02.322Z,98226.88
2022-12-17T16:28:28.968Z,98156.13
2022-12-17T16:31:00.351Z,98182.50
2022-12-17T16:33:31.133Z,98173.56
2022-12-17T16:36:02.100Z,98147.72
2022-12-17T16:38:28.770Z,98237.56
2022-12-17T16:40:56.631Z,98103.03
2022-12-17T16:43:23.951Z,98261.69
2022-12-17T16:45:51.134Z,98190.59
2022-12-17T16:48:19.300Z,98178.88
2022-12-17T16:50:46.159Z,98267.50
2022-12-17T16:53:13.006Z,98336.19
2022-12-17T16:55:46.613Z,98252.69
2022-12-17T16:58:16.970Z,98179.16
2022-12-17T17:06:31.833Z,98372.66
2022-12-17T17:09:00.212Z,98360.31
2022-12-17T17:11:26.820Z,98190.16
2022-12-17T17:13:56.980Z,98317.09
2022-12-17T17:16:24.386Z,98065.13
2022-12-17T17:18:51.477Z,98384.22
2022-12-17T17:21:25.242Z,98451.00
2022-12-17T17:24:18.512Z,98332.81
2022-12-17T17:26:47.561Z,98393.75
2022-12-17T17:29:14.137Z,98367.41
2022-12-17T17:34:27.272Z,98253.34
2022-12-17T17:36:53.837Z,98390.75
2022-12-17T17:39:20.370Z,98307.09
2022-12-17T17:41:47.018Z,98358.13
2022-12-17T17:44:13.994Z,98380.16
2022-12-17T17:46:40.550Z,98385.34
2022-12-17T17:49:07.646Z,98227.53
2022-12-17T17:54:27.639Z,98301.09
2022-12-17T17:56:54.209Z,98223.31
2022-12-17T17:59:22.811Z,98391.41
2022-12-17T18:01:51.996Z,98448.97
2022-12-17T18:04:20.503Z,98389.66
2022-12-17T18:07:09.088Z,98266.09
2022-12-17T18:09:34.072Z,98390.13
2022-12-17T18:12:20.634Z,98375.81
2022-12-17T18:15:12.590Z,98452.97
2022-12-17T18:17:33.709Z,98371.13
2022-12-17T18:20:00.376Z,98457.97
2022-12-17T18:22:28.406Z,98367.25
2022-12-17T18:24:54.898Z,98467.34
2022-12-17T18:27:21.467Z,98385.28
2022-12-17T18:29:48.092Z,98386.03
2022-12-17T18:32:14.677Z,98281.47
2022-12-17T18:34:41.331Z,98344.97
2022-12-17T18:37:08.015Z,98431.16
2022-12-17T18:39:34.629Z,98371.09
2022-12-17T18:42:19.969Z,98505.44
2022-12-17T18:44:46.514Z,98402.38
2022-12-17T18:47:13.117Z,98455.97
2022-12-17T18:49:39.661Z,98258.84
2022-12-17T18:52:07.022Z,98444.88
2022-12-17T18:54:36.129Z,98460.41
2022-12-17T18:57:02.929Z,98453.88
2022-12-17T18:59:30.291Z,98387.97
2022-12-17T19:01:57.140Z,98278.28
2022-12-17T19:04:23.889Z,98257.81
2022-12-17T19:06:53.792Z,98460.16
2022-12-17T19:09:20.252Z,98545.28
2022-12-17T19:11:46.901Z,98340.34
2022-12-17T19:14:13.524Z,98367.75
2022-12-17T19:16:40.132Z,98375.22
2022-12-17T19:19:06.675Z,98450.16
2022-12-17T19:21:33.839Z,98272.13
2022-12-17T19:24:02.149Z,98389.78
2022-12-17T19:26:29.096Z,98369.16
2022-12-17T19:28:56.271Z,98498.00
2022-12-17T19:31:24.330Z,98218.00
2022-12-17T19:33:57.120Z,98331.00
2022-12-17T19:36:28.306Z,98359.38
2022-12-17T19:38:56.825Z,98332.22
2022-12-17T19:41:23.491Z,98405.16
2022-12-17T19:43:54.994Z,98385.56
2022-12-17T19:46:21.735Z,98448.06
2022-12-17T19:48:49.273Z,98249.19
2022-12-17T19:51:21.885Z,98346.78
2022-12-17T19:53:49.059Z,98251.97
2022-12-17T19:56:25.854Z,98306.53
2022-12-17T19:58:54.229Z,98463.38
2022-12-17T20:01:27.678Z,98561.34
2022-12-17T20:03:54.563Z,98373.84
2022-12-17T20:06:22.506Z,98404.38
2022-12-17T20:08:49.076Z,98331.50
2022-12-17T20:11:34.355Z,98339.69
2022-12-17T20:14:17.519Z,98565.59
2022-12-17T20:16:52.130Z,98405.63
2022-12-17T20:19:23.612Z,98297.91
2022-12-17T20:21:50.276Z,98404.91
2022-12-17T20:24:17.029Z,98469.31
2022-12-17T20:26:43.875Z,98407.47
2022-12-17T20:29:10.578Z,98529.56
2022-12-17T20:31:37.466Z,98376.16
2022-12-17T20:34:04.685Z,98358.41
2022-12-17T20:36:31.319Z,98405.31
2022-12-17T20:38:57.949Z,98436.78
2022-12-17T20:41:26.119Z,98407.47
2022-12-17T20:43:52.950Z,98414.50
2022-12-17T20:46:20.052Z,98437.25
2022-12-17T20:48:46.756Z,98379.44
2022-12-17T20:51:21.958Z,98381.56
2022-12-17T20:53:52.472Z,98486.56
2022-12-17T20:56:22.552Z,98272.78
2022-12-17T20:58:56.226Z,98326.81
2022-12-17T21:01:23.812Z,98384.78
2022-12-17T21:03:51.180Z,98469.56
2022-12-17T21:06:19.805Z,98366.44
2022-12-17T21:08:50.173Z,98454.94
2022-12-17T21:11:21.284Z,98396.94
2022-12-17T21:13:47.826Z,98340.66
2022-12-17T21:16:18.276Z,98570.25
2022-12-17T21:18:44.861Z,98480.91
2022-12-17T21:21:13.965Z,98409.22
2022-12-17T21:23:40.729Z,98422.13
2022-12-17T21:26:17.436Z,98586.03
2022-12-17T21:28:45.381Z,98438.28
2022-12-17T21:31:23.568Z,98511.09
2022-12-17T21:33:50.984Z,98378.28
2022-12-17T21:36:18.913Z,98375.34
2022-12-17T21:38:45.580Z,98513.56
2022-12-17T21:41:14.079Z,98372.72
2022-12-17T21:43:40.806Z,98398.19
2022-12-17T21:46:08.042Z,98293.13
2022-12-17T21:48:41.367Z,98538.56
2022-12-17T21:51:09.791Z,98447.44
2022-12-17T21:53:38.802Z,98491.13
2022-12-17T21:56:06.765Z,98519.97
2022-12-17T21:58:33.620Z,98644.81
2022-12-17T22:01:17.016Z,98647.34
2022-12-17T22:03:46.461Z,98490.13
2022-12-17T22:06:14.875Z,98485.16
2022-12-17T22:08:41.994Z,98655.63
2022-12-17T22:11:10.303Z,98519.09
2022-12-17T22:14:01.806Z,98397.34
2022-12-17T22:16:36.792Z,98548.34
2022-12-17T22:19:07.636Z,98458.38
2022-12-17T22:21:35.163Z,98631.69
2022-12-17T22:24:01.812Z,98529.00
2022-12-17T22:26:28.494Z,98519.91
2022-12-17T22:28:55.165Z,98592.03
2022-12-17T22:31:40.577Z,98598.59
2022-12-17T22:35:14.506Z,98654.03
2022-12-17T22:38:53.840Z,98501.66
2022-12-17T22:43:19.355Z,98496.72
2022-12-17T22:44:42.606Z,98466.34
2022-12-17T22:45:38.282Z,98397.75
2022-12-17T22:48:05.495Z,98599.25
2022-12-17T22:50:36.079Z,98542.28
2022-12-17T22:53:13.781Z,98419.50
2022-12-17T22:55:40.737Z,98464.13
2022-12-17T22:58:07.639Z,98590.28
2022-12-17T23:00:34.994Z,98430.72
2022-12-17T23:03:01.729Z,98506.50
2022-12-17T23:05:28.764Z,98486.25
2022-12-17T23:07:55.425Z,98587.56
2022-12-17T23:10:22.013Z,98435.13
2022-12-17T23:12:51.507Z,98470.06
2022-12-17T23:15:24.663Z,98411.28
2022-12-17T23:17:52.316Z,98610.53
2022-12-17T23:20:18.966Z,98553.13
2022-12-17T23:22:45.556Z,98452.97
2022-12-17T23:25:12.155Z,98526.75
2022-12-17T23:27:38.702Z,98398.81
2022-12-17T23:30:09.160Z,98652.38
2022-12-17T23:32:35.798Z,98501.22
2022-12-17T23:35:02.413Z,98454.56
2022-12-17T23:37:29.129Z,98439.56
2022-12-17T23:39:55.824Z,98480.50
2022-12-17T23:42:22.389Z,98594.78
2022-12-17T23:44:48.967Z,98406.78
2022-12-17T23:47:15.496Z,98385.44
2022-12-17T23:49:42.153Z,98558.81
2022-12-17T23:52:08.859Z,98539.81
2022-12-17T23:54:36.029Z,98498.09
2022-12-17T23:57:02.657Z,98409.75
2022-12-17T23:59:29.188Z,98485.00
